Time;durP1;ratioP1;P1;durP2;ratioP2;P2;SDS_P1;SDS_P2;PMS_P1;PMS_P2;Temp;Humidity;BMP_temperature;BMP_pressure;BME280_temperature;BME280_humidity;BME280_pressure;Samples;Min_cycle;Max_cycle;Signal;HPM_P1;HPM_P2
2021/03/10 00:00:09;;;;;;;12.68;6.03;;;;;;;;;;5011051;28;20120;-77
2021/03/10 00:02:35;;;;;;;12.00;6.25;;;;;;;;;;5015292;28;20497;-77
2021/03/10 00:05:01;;;;;;;13.93;6.82;;;;;;;;;;5010964;28;20026;-77
2021/03/10 00:07:28;;;;;;;12.07;5.80;;;;;;;;;;5017087;28;20023;-77
2021/03/10 00:09:54;;;;;;;12.00;6.25;;;;;;;;;;5006601;28;20058;-77
2021/03/10 00:12:20;;;;;;;10.65;6.00;;;;;;;;;;5007948;28;20021;-77
2021/03/10 00:14:46;;;;;;;14.10;6.05;;;;;;;;;;5012846;28;20058;-77
2021/03/10 00:17:12;;;;;;;14.50;7.03;;;;;;;;;;5009521;28;20041;-77
2021/03/10 00:19:38;;;;;;;11.48;6.07;;;;;;;;;;5018796;28;20080;-78
2021/03/10 00:22:04;;;;;;;16.10;6.38;;;;;;;;;;5009396;28;20037;-77
2021/03/10 00:24:30;;;;;;;14.38;6.63;;;;;;;;;;5016575;28;20529;-77
2021/03/10 00:26:56;;;;;;;13.63;5.82;;;;;;;;;;5017338;28;20054;-77
2021/03/10 00:29:22;;;;;;;10.48;6.00;;;;;;;;;;5008805;28;20056;-77
2021/03/10 00:31:48;;;;;;;13.90;6.68;;;;;;;;;;5024789;28;20049;-77
2021/03/10 00:34:14;;;;;;;11.88;6.15;;;;;;;;;;4998969;28;20030;-77
2021/03/10 00:36:40;;;;;;;15.05;5.97;;;;;;;;;;5010366;28;20477;-77
2021/03/10 00:39:06;;;;;;;13.30;5.93;;;;;;;;;;5016559;28;20034;-77
2021/03/10 00:41:32;;;;;;;12.38;6.15;;;;;;;;;;5017799;28;20041;-77
2021/03/10 00:43:58;;;;;;;11.25;6.57;;;;;;;;;;5010926;28;20030;-78
2021/03/10 00:46:24;;;;;;;15.15;6.47;;;;;;;;;;5023540;28;20497;-77
2021/03/10 00:48:50;;;;;;;13.00;6.93;;;;;;;;;;5015893;28;20045;-77
2021/03/10 00:51:16;;;;;;;15.52;6.07;;;;;;;;;;5018592;28;20037;-77
2021/03/10 00:53:42;;;;;;;10.73;5.57;;;;;;;;;;5006463;28;20034;-78
2021/03/10 00:56:08;;;;;;;13.55;6.75;;;;;;;;;;5014220;28;20029;-77
2021/03/10 00:58:34;;;;;;;13.82;6.60;;;;;;;;;;5014518;28;20037;-77
2021/03/10 01:01:01;;;;;;;11.55;6.22;;;;;;;;;;5013609;28;20041;-77
2021/03/10 01:03:27;;;;;;;14.85;6.20;;;;;;;;;;5007480;28;20536;-77
2021/03/10 01:05:53;;;;;;;14.55;6.80;;;;;;;;;;5019604;28;20033;-78
2021/03/10 01:08:19;;;;;;;12.38;6.35;;;;;;;;;;5009014;28;20053;-77
2021/03/10 01:10:46;;;;;;;11.70;6.13;;;;;;;;;;5014650;28;20030;-77
2021/03/10 01:13:12;;;;;;;13.68;6.13;;;;;;;;;;5004509;28;20442;-77
2021/03/10 01:15:38;;;;;;;14.80;6.95;;;;;;;;;;5014273;28;20556;-77
2021/03/10 01:18:04;;;;;;;13.95;6.55;;;;;;;;;;5014484;28;20029;-77
2021/03/10 01:20:30;;;;;;;16.00;7.60;;;;;;;;;;5008689;28;20038;-77
2021/03/10 01:22:56;;;;;;;14.52;6.82;;;;;;;;;;5009030;28;20030;-78
2021/03/10 01:25:22;;;;;;;15.70;6.45;;;;;;;;;;5019928;28;20073;-77
2021/03/10 01:27:48;;;;;;;15.10;6.53;;;;;;;;;;5002976;28;20105;-78
2021/03/10 01:30:15;;;;;;;12.50;6.57;;;;;;;;;;5010057;28;20058;-77
2021/03/10 01:32:42;;;;;;;16.27;7.28;;;;;;;;;;5006594;28;20041;-77
2021/03/10 01:35:08;;;;;;;13.18;7.38;;;;;;;;;;5001439;28;20493;-77
2021/03/10 01:37:35;;;;;;;16.23;6.57;;;;;;;;;;5003930;28;20034;-77
2021/03/10 01:40:07;;;;;;;12.90;6.10;;;;;;;;;;5024927;28;20441;-78
2021/03/10 01:42:33;;;;;;;12.95;6.97;;;;;;;;;;5007458;28;20124;-77
2021/03/10 01:44:59;;;;;;;15.43;6.68;;;;;;;;;;5005011;28;20018;-77
2021/03/10 01:47:25;;;;;;;14.50;6.18;;;;;;;;;;5015294;28;20026;-77
2021/03/10 01:49:51;;;;;;;14.63;6.75;;;;;;;;;;5009468;28;20059;-77
2021/03/10 01:52:17;;;;;;;16.45;7.38;;;;;;;;;;5010305;28;20039;-78
2021/03/10 01:54:43;;;;;;;12.13;6.28;;;;;;;;;;5008560;28;20152;-77
2021/03/10 01:57:09;;;;;;;12.68;6.63;;;;;;;;;;5007578;28;20057;-77
2021/03/10 01:59:35;;;;;;;17.23;7.07;;;;;;;;;;5008737;28;20454;-77
2021/03/10 02:02:01;;;;;;;13.00;6.47;;;;;;;;;;5009668;28;20048;-77
2021/03/10 02:04:27;;;;;;;13.55;6.85;;;;;;;;;;5004516;28;20030;-77
2021/03/10 02:06:59;;;;;;;13.75;7.00;;;;;;;;;;5014616;28;20034;-77
2021/03/10 02:09:25;;;;;;;16.23;7.30;;;;;;;;;;5003154;28;20029;-77
2021/03/10 02:11:58;;;;;;;12.88;6.82;;;;;;;;;;5013397;28;20366;-77
2021/03/10 02:14:27;;;;;;;14.87;6.90;;;;;;;;;;5003460;28;20407;-77
2021/03/10 02:17:02;;;;;;;12.63;7.10;;;;;;;;;;4999584;28;20034;-78
2021/03/10 02:19:33;;;;;;;11.52;6.32;;;;;;;;;;5012972;28;20058;-77
2021/03/10 02:22:04;;;;;;;13.30;6.65;;;;;;;;;;5006159;28;20581;-78
2021/03/10 02:24:49;;;;;;;11.30;6.65;;;;;;;;;;5014357;28;20038;-77
2021/03/10 02:27:31;;;;;;;16.77;6.93;;;;;;;;;;5001246;28;20022;-77
2021/03/10 02:30:12;;;;;;;9.63;5.23;;;;;;;;;;5012029;28;20026;-77
2021/03/10 02:32:39;;;;;;;12.00;6.75;;;;;;;;;;5001698;28;20067;-77
2021/03/10 02:35:06;;;;;;;12.07;6.30;;;;;;;;;;5011893;28;20046;-78
2021/03/10 02:37:33;;;;;;;13.35;6.40;;;;;;;;;;5011445;28;20030;-77
2021/03/10 02:39:59;;;;;;;16.92;7.35;;;;;;;;;;5018424;28;20034;-78
2021/03/10 02:42:26;;;;;;;11.48;6.22;;;;;;;;;;5004838;28;20030;-77
2021/03/10 02:44:53;;;;;;;15.13;6.53;;;;;;;;;;5022849;28;20037;-77
2021/03/10 02:47:19;;;;;;;20.17;6.65;;;;;;;;;;5011995;28;20068;-77
2021/03/10 02:49:46;;;;;;;13.85;7.13;;;;;;;;;;5015297;28;20073;-77
2021/03/10 02:52:12;;;;;;;16.75;7.82;;;;;;;;;;5023584;28;20037;-77
2021/03/10 02:54:39;;;;;;;9.77;5.95;;;;;;;;;;5012908;28;20030;-77
2021/03/10 02:57:05;;;;;;;13.27;6.97;;;;;;;;;;5003467;28;20037;-77
2021/03/10 02:59:31;;;;;;;13.95;6.88;;;;;;;;;;5014552;28;20026;-77
2021/03/10 03:01:57;;;;;;;16.17;7.40;;;;;;;;;;5013891;28;20042;-77
2021/03/10 03:04:23;;;;;;;16.40;7.25;;;;;;;;;;5017538;28;20034;-77
2021/03/10 03:06:49;;;;;;;15.63;6.88;;;;;;;;;;5005889;28;20026;-78
2021/03/10 03:09:15;;;;;;;13.23;6.75;;;;;;;;;;5008749;28;20489;-77
2021/03/10 03:11:42;;;;;;;16.73;7.82;;;;;;;;;;5011753;28;20025;-77
2021/03/10 03:14:08;;;;;;;13.82;6.75;;;;;;;;;;5014430;28;20033;-77
2021/03/10 03:16:34;;;;;;;15.23;7.32;;;;;;;;;;5017269;28;20014;-77
2021/03/10 03:19:02;;;;;;;13.43;6.63;;;;;;;;;;5008686;28;20030;-77
2021/03/10 03:21:28;;;;;;;12.85;6.60;;;;;;;;;;5007732;28;20025;-77
2021/03/10 03:23:55;;;;;;;17.75;7.43;;;;;;;;;;5012850;28;20430;-77
2021/03/10 03:26:21;;;;;;;11.73;6.75;;;;;;;;;;5012586;28;20097;-77
2021/03/10 03:28:47;;;;;;;13.48;6.50;;;;;;;;;;5013336;28;20041;-78
2021/03/10 03:31:15;;;;;;;12.55;6.63;;;;;;;;;;5014954;28;20465;-78
2021/03/10 03:33:42;;;;;;;12.68;6.28;;;;;;;;;;5011908;28;20022;-77
2021/03/10 03:36:08;;;;;;;13.93;6.35;;;;;;;;;;5006370;28;20034;-77
2021/03/10 03:38:34;;;;;;;11.10;6.03;;;;;;;;;;5011699;28;20041;-78
2021/03/10 03:41:00;;;;;;;13.13;6.70;;;;;;;;;;5006700;28;20117;-77
2021/03/10 03:43:27;;;;;;;13.30;7.25;;;;;;;;;;5014229;28;20109;-77
2021/03/10 03:45:53;;;;;;;13.90;6.82;;;;;;;;;;5009009;28;20401;-77
2021/03/10 03:48:20;;;;;;;14.50;7.18;;;;;;;;;;5007280;28;20058;-77
2021/03/10 03:50:47;;;;;;;21.23;8.40;;;;;;;;;;5009177;28;20065;-77
2021/03/10 03:53:13;;;;;;;19.42;8.18;;;;;;;;;;5008130;28;20406;-77
2021/03/10 03:55:39;;;;;;;18.27;8.00;;;;;;;;;;5028905;28;20032;-77
2021/03/10 03:58:05;;;;;;;17.65;8.55;;;;;;;;;;5011618;28;20366;-77
2021/03/10 04:00:32;;;;;;;19.27;8.25;;;;;;;;;;5012184;28;20501;-77
2021/03/10 04:02:58;;;;;;;18.10;8.18;;;;;;;;;;5010074;28;20034;-77
2021/03/10 04:05:24;;;;;;;19.35;8.13;;;;;;;;;;5011393;28;20066;-77
2021/03/10 04:07:50;;;;;;;18.88;8.77;;;;;;;;;;5015552;28;20057;-77
2021/03/10 04:10:17;;;;;;;17.83;8.60;;;;;;;;;;5017762;28;20030;-77
2021/03/10 04:12:43;;;;;;;17.55;8.30;;;;;;;;;;5026295;28;20084;-77
2021/03/10 04:15:10;;;;;;;18.83;7.80;;;;;;;;;;5021743;28;20552;-77
2021/03/10 04:17:36;;;;;;;19.05;8.23;;;;;;;;;;5015358;28;20052;-77
2021/03/10 04:20:05;;;;;;;20.20;8.95;;;;;;;;;;5017173;28;20042;-77
2021/03/10 04:22:31;;;;;;;19.80;8.00;;;;;;;;;;5023788;28;20030;-77
2021/03/10 04:24:57;;;;;;;18.65;8.57;;;;;;;;;;5011588;28;20185;-77
2021/03/10 04:27:23;;;;;;;25.02;8.93;;;;;;;;;;5009789;28;20077;-77
2021/03/10 04:29:49;;;;;;;20.48;9.27;;;;;;;;;;5013490;28;20029;-77
2021/03/10 04:32:15;;;;;;;24.27;9.50;;;;;;;;;;5022047;28;20038;-77
2021/03/10 04:34:41;;;;;;;20.50;8.65;;;;;;;;;;5016763;28;20037;-77
2021/03/10 04:37:07;;;;;;;18.05;8.63;;;;;;;;;;5021995;28;20029;-77
2021/03/10 04:39:33;;;;;;;18.83;8.43;;;;;;;;;;4990658;28;20053;-77
2021/03/10 04:41:59;;;;;;;18.52;7.80;;;;;;;;;;5009215;28;20076;-77
2021/03/10 04:44:25;;;;;;;18.02;8.48;;;;;;;;;;5008648;28;20026;-77
2021/03/10 04:46:51;;;;;;;16.45;6.95;;;;;;;;;;5006013;28;20085;-77
2021/03/10 04:49:17;;;;;;;16.65;7.78;;;;;;;;;;5007368;28;20409;-77
2021/03/10 04:51:43;;;;;;;14.52;7.55;;;;;;;;;;5022418;28;20018;-77
2021/03/10 04:54:09;;;;;;;16.35;7.05;;;;;;;;;;5017279;28;20048;-77
2021/03/10 04:56:35;;;;;;;17.25;7.68;;;;;;;;;;4998893;28;20112;-77
2021/03/10 04:59:01;;;;;;;15.93;8.05;;;;;;;;;;5016598;28;20049;-77
2021/03/10 05:01:27;;;;;;;16.92;7.68;;;;;;;;;;5020175;28;20025;-77
2021/03/10 05:03:53;;;;;;;20.73;7.97;;;;;;;;;;5013892;28;20030;-77
2021/03/10 05:06:19;;;;;;;18.67;8.35;;;;;;;;;;5002365;28;20037;-77
2021/03/10 05:08:45;;;;;;;20.25;8.52;;;;;;;;;;5015728;28;20021;-77
2021/03/10 05:11:11;;;;;;;16.40;8.35;;;;;;;;;;5009436;28;20030;-77
2021/03/10 05:13:37;;;;;;;20.92;9.65;;;;;;;;;;5007543;28;20146;-77
2021/03/10 05:16:03;;;;;;;21.52;9.95;;;;;;;;;;5004835;28;20147;-77
2021/03/10 05:18:29;;;;;;;19.02;9.20;;;;;;;;;;5018053;28;20113;-77
2021/03/10 05:20:55;;;;;;;26.48;10.90;;;;;;;;;;5022961;28;20030;-77
2021/03/10 05:23:21;;;;;;;25.67;10.80;;;;;;;;;;5015852;28;20022;-77
2021/03/10 05:25:47;;;;;;;24.52;10.35;;;;;;;;;;5003780;28;20026;-77
2021/03/10 05:28:13;;;;;;;24.00;9.85;;;;;;;;;;5021650;28;20029;-77
2021/03/10 05:30:39;;;;;;;24.00;10.30;;;;;;;;;;5011243;28;20022;-77
2021/03/10 05:33:05;;;;;;;21.95;9.73;;;;;;;;;;5018621;28;20033;-78
2021/03/10 05:35:31;;;;;;;20.55;10.05;;;;;;;;;;5017263;28;20022;-77
2021/03/10 05:37:57;;;;;;;22.08;11.20;;;;;;;;;;5015259;28;20038;-78
2021/03/10 05:40:24;;;;;;;18.60;9.02;;;;;;;;;;5023759;28;20083;-79
2021/03/10 05:42:50;;;;;;;18.58;9.15;;;;;;;;;;5017498;28;20116;-82
2021/03/10 05:45:16;;;;;;;17.83;7.72;;;;;;;;;;5011449;28;20025;-79
2021/03/10 05:47:42;;;;;;;20.00;9.15;;;;;;;;;;5007315;28;20033;-79
2021/03/10 05:50:09;;;;;;;19.13;9.15;;;;;;;;;;5027795;28;20049;-79
2021/03/10 05:52:36;;;;;;;19.80;8.73;;;;;;;;;;5002727;28;20033;-80
2021/03/10 05:55:03;;;;;;;22.35;8.63;;;;;;;;;;5002704;28;20030;-79
2021/03/10 05:57:29;;;;;;;20.30;9.55;;;;;;;;;;5010685;28;20109;-79
2021/03/10 05:59:55;;;;;;;20.15;9.75;;;;;;;;;;5013960;28;20506;-78
2021/03/10 06:02:21;;;;;;;26.83;10.40;;;;;;;;;;5023268;28;20473;-79
2021/03/10 06:04:47;;;;;;;22.05;10.40;;;;;;;;;;5028148;28;20030;-78
2021/03/10 06:07:23;;;;;;;28.38;10.55;;;;;;;;;;5029246;28;20438;-79
2021/03/10 06:09:58;;;;;;;22.25;11.18;;;;;;;;;;5017315;28;20033;-79
2021/03/10 06:12:25;;;;;;;25.77;11.32;;;;;;;;;;5016537;28;20497;-80
2021/03/10 06:15:00;;;;;;;21.90;10.68;;;;;;;;;;5021018;28;20044;-78
2021/03/10 06:17:26;;;;;;;20.85;10.30;;;;;;;;;;5008735;28;20519;-78
2021/03/10 06:19:52;;;;;;;22.63;10.32;;;;;;;;;;5020080;28;20030;-78
2021/03/10 06:22:19;;;;;;;26.65;10.98;;;;;;;;;;5016129;28;20048;-79
2021/03/10 06:24:49;;;;;;;22.90;10.65;;;;;;;;;;4995883;28;20014;-78
2021/03/10 06:27:21;;;;;;;21.63;10.55;;;;;;;;;;5017805;28;20032;-79
2021/03/10 06:29:54;;;;;;;26.05;11.38;;;;;;;;;;4999332;28;20025;-78
2021/03/10 06:32:20;;;;;;;23.38;11.52;;;;;;;;;;5014818;28;20033;-78
2021/03/10 06:34:48;;;;;;;23.80;10.60;;;;;;;;;;5006751;28;20030;-78
2021/03/10 06:37:24;;;;;;;22.05;11.57;;;;;;;;;;5011995;28;20462;-79
2021/03/10 06:39:50;;;;;;;25.05;11.07;;;;;;;;;;5011024;28;20458;-78
2021/03/10 06:42:18;;;;;;;24.88;10.82;;;;;;;;;;5015726;28;20029;-78
2021/03/10 06:44:56;;;;;;;23.58;10.90;;;;;;;;;;5014732;28;20117;-78
2021/03/10 06:47:22;;;;;;;26.20;11.38;;;;;;;;;;5022342;28;20025;-79
2021/03/10 06:49:53;;;;;;;28.67;11.05;;;;;;;;;;5019958;28;20057;-79
2021/03/10 06:52:19;;;;;;;25.42;10.98;;;;;;;;;;5021275;28;20037;-79
2021/03/10 06:54:54;;;;;;;23.80;11.25;;;;;;;;;;5029084;28;20036;-79
2021/03/10 06:57:20;;;;;;;24.98;10.43;;;;;;;;;;5016974;28;20037;-79
2021/03/10 06:59:47;;;;;;;21.05;10.13;;;;;;;;;;5018093;28;20026;-79
2021/03/10 07:02:23;;;;;;;23.73;10.93;;;;;;;;;;5021258;28;20429;-79
2021/03/10 07:04:50;;;;;;;23.45;10.43;;;;;;;;;;5000236;28;20113;-79
2021/03/10 07:07:17;;;;;;;26.30;11.43;;;;;;;;;;5016234;28;20026;-79
2021/03/10 07:09:43;;;;;;;22.95;10.73;;;;;;;;;;5027080;28;20037;-79
2021/03/10 07:12:12;;;;;;;30.20;12.15;;;;;;;;;;5017545;28;20432;-79
2021/03/10 07:14:38;;;;;;;23.33;10.60;;;;;;;;;;5016645;28;20026;-79
2021/03/10 07:17:05;;;;;;;23.40;10.85;;;;;;;;;;5007530;28;20470;-79
2021/03/10 07:19:31;;;;;;;23.83;11.23;;;;;;;;;;5013115;28;20037;-79
2021/03/10 07:21:58;;;;;;;23.25;10.82;;;;;;;;;;5015955;28;20026;-79
2021/03/10 07:24:33;;;;;;;25.45;11.05;;;;;;;;;;5015007;28;20077;-79
2021/03/10 07:27:00;;;;;;;22.42;10.57;;;;;;;;;;5020352;28;20024;-79
2021/03/10 07:29:27;;;;;;;23.08;11.07;;;;;;;;;;5009964;28;20105;-79
2021/03/10 07:32:00;;;;;;;26.17;11.25;;;;;;;;;;5028032;28;20033;-79
2021/03/10 07:34:26;;;;;;;22.55;11.32;;;;;;;;;;5031213;28;20018;-80
2021/03/10 07:36:53;;;;;;;31.55;12.82;;;;;;;;;;5013632;28;20052;-79
2021/03/10 07:39:20;;;;;;;27.10;12.35;;;;;;;;;;5017936;28;20044;-79
2021/03/10 07:41:47;;;;;;;26.88;11.77;;;;;;;;;;5026023;28;20036;-80
2021/03/10 07:44:20;;;;;;;25.65;11.65;;;;;;;;;;5017233;28;20022;-79
2021/03/10 07:46:46;;;;;;;24.13;12.23;;;;;;;;;;5019328;28;20029;-80
2021/03/10 07:49:25;;;;;;;26.52;11.65;;;;;;;;;;5016684;28;20038;-78
2021/03/10 07:52:02;;;;;;;21.52;11.13;;;;;;;;;;5025021;28;20108;-78
2021/03/10 07:54:29;;;;;;;22.67;11.15;;;;;;;;;;5017365;28;20061;-78
2021/03/10 07:57:05;;;;;;;22.88;10.85;;;;;;;;;;5017265;28;20061;-79
2021/03/10 07:59:31;;;;;;;27.17;11.07;;;;;;;;;;5015924;28;20050;-79
2021/03/10 08:02:01;;;;;;;25.85;11.75;;;;;;;;;;5020570;28;20018;-79
2021/03/10 08:04:27;;;;;;;23.70;11.90;;;;;;;;;;5008386;28;20050;-80
2021/03/10 08:06:53;;;;;;;22.92;12.45;;;;;;;;;;5009833;28;20030;-79
2021/03/10 08:09:20;;;;;;;31.10;12.93;;;;;;;;;;5015303;28;20049;-79
2021/03/10 08:11:48;;;;;;;24.98;11.40;;;;;;;;;;5016823;28;20029;-80
2021/03/10 08:14:16;;;;;;;30.10;12.45;;;;;;;;;;5014474;28;20033;-79
2021/03/10 08:16:46;;;;;;;25.13;12.68;;;;;;;;;;5024358;28;20425;-79
2021/03/10 08:19:12;;;;;;;25.42;12.40;;;;;;;;;;4998520;28;20056;-79
2021/03/10 08:21:46;;;;;;;25.80;12.48;;;;;;;;;;5018250;28;20018;-79
2021/03/10 08:24:12;;;;;;;23.08;11.68;;;;;;;;;;5019041;28;20129;-79
2021/03/10 08:26:39;;;;;;;23.45;12.13;;;;;;;;;;5018677;28;20034;-78
2021/03/10 08:29:05;;;;;;;26.58;11.85;;;;;;;;;;5003666;28;20049;-79
2021/03/10 08:31:31;;;;;;;21.77;11.80;;;;;;;;;;5010637;28;20142;-80
2021/03/10 08:33:57;;;;;;;26.23;11.90;;;;;;;;;;5017355;28;20585;-79
2021/03/10 08:36:33;;;;;;;22.70;10.88;;;;;;;;;;5003707;28;20053;-80
2021/03/10 08:38:59;;;;;;;23.77;10.00;;;;;;;;;;5024274;28;20380;-80
2021/03/10 08:41:25;;;;;;;19.08;9.75;;;;;;;;;;5024948;28;20049;-79
2021/03/10 08:44:03;;;;;;;22.42;9.77;;;;;;;;;;5025103;28;20018;-80
2021/03/10 08:46:39;;;;;;;21.73;9.38;;;;;;;;;;5015409;28;20030;-80
2021/03/10 08:49:16;;;;;;;22.42;10.10;;;;;;;;;;5016029;28;20034;-80
2021/03/10 08:51:42;;;;;;;23.58;10.60;;;;;;;;;;5014959;28;20084;-80
2021/03/10 08:54:08;;;;;;;22.90;9.68;;;;;;;;;;5015689;28;20036;-77
2021/03/10 08:56:34;;;;;;;21.02;10.63;;;;;;;;;;5020987;28;20038;-80
2021/03/10 08:59:00;;;;;;;21.77;10.15;;;;;;;;;;5010155;28;20052;-78
2021/03/10 09:01:26;;;;;;;20.52;9.93;;;;;;;;;;5020219;28;20025;-80
2021/03/10 09:03:52;;;;;;;17.52;9.48;;;;;;;;;;5014636;28;20418;-80
2021/03/10 09:06:20;;;;;;;22.50;9.57;;;;;;;;;;5022852;28;20025;-81
2021/03/10 09:08:46;;;;;;;16.17;8.88;;;;;;;;;;5014882;28;20030;-78
2021/03/10 09:11:13;;;;;;;19.23;8.90;;;;;;;;;;5014971;28;20118;-80
2021/03/10 09:13:39;;;;;;;24.52;11.93;;;;;;;;;;5014197;28;20021;-81
2021/03/10 09:16:09;;;;;;;19.90;7.93;;;;;;;;;;5017393;28;20059;-80
2021/03/10 09:18:35;;;;;;;24.42;10.90;;;;;;;;;;4997078;28;20084;-78
2021/03/10 09:21:01;;;;;;;21.08;8.93;;;;;;;;;;5012730;28;20026;-77
2021/03/10 09:23:28;;;;;;;16.75;9.05;;;;;;;;;;5002974;28;20033;-77
2021/03/10 09:25:55;;;;;;;15.80;7.85;;;;;;;;;;5012924;28;20466;-77
2021/03/10 09:28:21;;;;;;;21.67;9.35;;;;;;;;;;5026877;28;20436;-78
2021/03/10 09:30:50;;;;;;;18.45;8.63;;;;;;;;;;5014476;28;20018;-80
2021/03/10 09:33:20;;;;;;;20.92;8.45;;;;;;;;;;5000934;28;20052;-81
2021/03/10 09:36:12;;;;;;;18.45;8.48;;;;;;;;;;5014432;28;20050;-80
2021/03/10 09:38:41;;;;;;;16.40;6.97;;;;;;;;;;5011745;28;20046;-80
2021/03/10 09:41:07;;;;;;;12.25;6.32;;;;;;;;;;5012107;28;20117;-80
2021/03/10 09:43:34;;;;;;;17.40;7.40;;;;;;;;;;5015698;28;20417;-80
2021/03/10 09:46:01;;;;;;;18.85;8.45;;;;;;;;;;5018482;28;20026;-78
2021/03/10 09:48:34;;;;;;;15.73;7.10;;;;;;;;;;5013268;28;20036;-80
2021/03/10 09:51:08;;;;;;;15.55;6.97;;;;;;;;;;5005074;28;20090;-80
2021/03/10 09:53:34;;;;;;;11.95;6.05;;;;;;;;;;5014067;28;20030;-78
2021/03/10 09:56:10;;;;;;;15.13;6.93;;;;;;;;;;5018127;28;20459;-78
2021/03/10 09:58:54;;;;;;;15.00;6.75;;;;;;;;;;5023784;28;20381;-78
2021/03/10 10:01:23;;;;;;;15.25;7.68;;;;;;;;;;5012573;28;20049;-78
2021/03/10 10:03:50;;;;;;;12.15;6.55;;;;;;;;;;5011326;28;20030;-78
2021/03/10 10:06:20;;;;;;;21.40;8.05;;;;;;;;;;5019238;28;20073;-78
2021/03/10 10:08:46;;;;;;;11.60;5.70;;;;;;;;;;5016191;28;20470;-78
2021/03/10 10:11:12;;;;;;;18.27;6.53;;;;;;;;;;5018380;28;20081;-78
2021/03/10 10:13:41;;;;;;;16.42;6.20;;;;;;;;;;5014291;28;20157;-78
2021/03/10 10:16:08;;;;;;;12.98;6.32;;;;;;;;;;5013548;28;20084;-77
2021/03/10 10:18:35;;;;;;;11.73;6.00;;;;;;;;;;5014952;28;20025;-78
2021/03/10 10:21:01;;;;;;;9.77;5.57;;;;;;;;;;5009537;28;20018;-83
2021/03/10 10:23:27;;;;;;;8.07;4.80;;;;;;;;;;5014763;28;20026;-78
2021/03/10 10:25:54;;;;;;;10.85;5.20;;;;;;;;;;5016403;28;20030;-80
2021/03/10 10:28:20;;;;;;;12.90;6.20;;;;;;;;;;5002929;28;20127;-80
2021/03/10 10:30:46;;;;;;;13.15;5.20;;;;;;;;;;4995389;28;20053;-81
2021/03/10 10:33:12;;;;;;;13.85;6.20;;;;;;;;;;5015355;28;20034;-80
2021/03/10 10:35:38;;;;;;;10.73;5.03;;;;;;;;;;5019161;28;20025;-79
2021/03/10 10:38:05;;;;;;;8.40;4.40;;;;;;;;;;5025994;28;20030;-79
2021/03/10 10:40:31;;;;;;;7.78;4.68;;;;;;;;;;5009774;28;20485;-79
2021/03/10 10:42:57;;;;;;;12.20;6.53;;;;;;;;;;5014191;28;20042;-78
2021/03/10 10:45:23;;;;;;;12.32;6.20;;;;;;;;;;5014811;28;20032;-79
2021/03/10 10:47:49;;;;;;;11.98;6.03;;;;;;;;;;5020972;28;20032;-79
2021/03/10 10:50:15;;;;;;;8.25;5.25;;;;;;;;;;5022757;28;20046;-79
2021/03/10 10:52:41;;;;;;;14.85;5.55;;;;;;;;;;5014717;28;20085;-79
2021/03/10 10:55:09;;;;;;;13.13;5.57;;;;;;;;;;5012950;28;20089;-79
2021/03/10 10:57:35;;;;;;;8.20;4.82;;;;;;;;;;5013934;28;20372;-79
2021/03/10 11:00:01;;;;;;;7.25;4.35;;;;;;;;;;5019682;28;20382;-79
2021/03/10 11:02:27;;;;;;;11.35;5.45;;;;;;;;;;5015199;28;20037;-79
2021/03/10 11:04:53;;;;;;;10.95;4.68;;;;;;;;;;5013711;28;20029;-79
2021/03/10 11:07:19;;;;;;;8.70;4.25;;;;;;;;;;5029613;28;20025;-79
2021/03/10 11:09:45;;;;;;;9.20;4.90;;;;;;;;;;4996450;28;20032;-79
2021/03/10 11:12:12;;;;;;;10.90;5.82;;;;;;;;;;4997589;28;20022;-79
2021/03/10 11:14:41;;;;;;;10.98;5.35;;;;;;;;;;4994887;28;20023;-79
2021/03/10 11:17:07;;;;;;;7.80;4.72;;;;;;;;;;5005495;28;20030;-79
2021/03/10 11:19:34;;;;;;;11.15;4.70;;;;;;;;;;5016096;28;20100;-79
2021/03/10 11:22:02;;;;;;;7.43;3.88;;;;;;;;;;5021471;28;20037;-79
2021/03/10 11:24:28;;;;;;;9.55;5.25;;;;;;;;;;5013714;28;20034;-80
2021/03/10 11:26:54;;;;;;;11.00;5.50;;;;;;;;;;5011999;28;20466;-80
2021/03/10 11:29:20;;;;;;;10.43;4.65;;;;;;;;;;5014368;28;20053;-79
2021/03/10 11:31:46;;;;;;;9.25;5.32;;;;;;;;;;5011164;28;20041;-79
2021/03/10 11:34:13;;;;;;;10.15;4.88;;;;;;;;;;5018521;28;20110;-78
2021/03/10 11:36:39;;;;;;;8.18;4.43;;;;;;;;;;5021956;28;20057;-79
2021/03/10 11:39:05;;;;;;;8.38;4.47;;;;;;;;;;5013745;28;20037;-79
2021/03/10 11:41:34;;;;;;;9.18;4.70;;;;;;;;;;5012390;28;20082;-79
2021/03/10 11:44:00;;;;;;;8.18;4.55;;;;;;;;;;5016783;28;20030;-78
2021/03/10 11:46:26;;;;;;;10.00;6.03;;;;;;;;;;5013281;28;20045;-79
2021/03/10 11:48:52;;;;;;;11.38;5.57;;;;;;;;;;5012271;28;20462;-80
2021/03/10 11:51:18;;;;;;;11.30;5.10;;;;;;;;;;5009167;28;20129;-80
2021/03/10 11:53:44;;;;;;;8.77;4.65;;;;;;;;;;5010271;28;20034;-79
2021/03/10 11:56:10;;;;;;;10.40;5.43;;;;;;;;;;5013774;28;20389;-81
2021/03/10 11:58:36;;;;;;;10.52;6.05;;;;;;;;;;5014979;28;20117;-80
2021/03/10 12:01:02;;;;;;;9.13;5.38;;;;;;;;;;5017745;28;20033;-81
2021/03/10 12:03:28;;;;;;;9.30;5.47;;;;;;;;;;5013629;28;20109;-80
2021/03/10 12:05:54;;;;;;;8.95;5.20;;;;;;;;;;5008736;28;20033;-79
2021/03/10 12:08:20;;;;;;;10.05;5.38;;;;;;;;;;5010006;28;20030;-80
2021/03/10 12:10:45;;;;;;;10.95;6.13;;;;;;;;;;5012040;28;20030;-80
2021/03/10 12:13:12;;;;;;;9.38;4.90;;;;;;;;;;5018176;28;20030;-80
2021/03/10 12:15:38;;;;;;;8.55;5.05;;;;;;;;;;5017692;28;20104;-80
2021/03/10 12:18:05;;;;;;;7.28;4.70;;;;;;;;;;5015360;28;20124;-81
2021/03/10 12:20:31;;;;;;;7.82;4.97;;;;;;;;;;5016219;28;20041;-80
2021/03/10 12:22:57;;;;;;;10.93;5.30;;;;;;;;;;5015687;28;20057;-80
2021/03/10 12:25:23;;;;;;;9.52;4.95;;;;;;;;;;5015787;28;20437;-80
2021/03/10 12:27:50;;;;;;;9.50;5.07;;;;;;;;;;5021107;28;20122;-81
2021/03/10 12:30:16;;;;;;;8.20;4.85;;;;;;;;;;5016829;28;20057;-81
2021/03/10 12:32:42;;;;;;;9.77;5.22;;;;;;;;;;5017062;28;20041;-80
2021/03/10 12:35:09;;;;;;;9.98;5.70;;;;;;;;;;5018944;28;20119;-80
2021/03/10 12:37:35;;;;;;;9.82;5.97;;;;;;;;;;5012814;28;20072;-80
2021/03/10 12:40:01;;;;;;;9.07;5.53;;;;;;;;;;5014133;28;20033;-80
2021/03/10 12:42:27;;;;;;;12.80;6.65;;;;;;;;;;5024607;28;20489;-79
2021/03/10 12:44:53;;;;;;;11.50;7.07;;;;;;;;;;5018785;28;20026;-80
2021/03/10 12:47:20;;;;;;;11.80;6.68;;;;;;;;;;5014000;28;20030;-81
2021/03/10 12:49:46;;;;;;;12.88;7.57;;;;;;;;;;5012921;28;20524;-81
2021/03/10 12:52:12;;;;;;;10.23;6.50;;;;;;;;;;5016132;28;20154;-80
2021/03/10 12:54:38;;;;;;;10.18;6.15;;;;;;;;;;5014353;28;20442;-81
2021/03/10 12:57:04;;;;;;;11.65;6.93;;;;;;;;;;5020924;28;20033;-80
2021/03/10 12:59:30;;;;;;;11.30;6.63;;;;;;;;;;5011130;28;20149;-80
2021/03/10 13:01:56;;;;;;;14.45;6.50;;;;;;;;;;4999239;28;20474;-80
2021/03/10 13:04:22;;;;;;;9.98;6.07;;;;;;;;;;5017545;28;20149;-81
2021/03/10 13:06:48;;;;;;;12.52;7.07;;;;;;;;;;5013994;28;20028;-80
2021/03/10 13:09:14;;;;;;;10.75;6.53;;;;;;;;;;5010737;28;20030;-80
2021/03/10 13:11:41;;;;;;;10.23;6.20;;;;;;;;;;4997680;28;20026;-81
2021/03/10 13:14:07;;;;;;;10.75;6.68;;;;;;;;;;5012611;28;20466;-80
2021/03/10 13:16:34;;;;;;;11.88;7.15;;;;;;;;;;4997425;28;20054;-81
2021/03/10 13:19:00;;;;;;;9.25;6.25;;;;;;;;;;5010341;28;20026;-80
2021/03/10 13:21:27;;;;;;;10.50;5.82;;;;;;;;;;5009625;28;20038;-81
2021/03/10 13:23:53;;;;;;;10.27;6.55;;;;;;;;;;5015462;28;20033;-81
2021/03/10 13:26:19;;;;;;;11.23;6.25;;;;;;;;;;5016372;28;20018;-81
2021/03/10 13:28:45;;;;;;;9.63;6.55;;;;;;;;;;5014604;28;20036;-81
2021/03/10 13:31:11;;;;;;;11.10;7.28;;;;;;;;;;5015397;28;20037;-81
2021/03/10 13:33:38;;;;;;;9.90;6.72;;;;;;;;;;5014648;28;20026;-81
2021/03/10 13:36:05;;;;;;;12.25;6.95;;;;;;;;;;5009773;28;20061;-81
2021/03/10 13:38:31;;;;;;;10.48;6.53;;;;;;;;;;5028607;28;20077;-81
2021/03/10 13:40:57;;;;;;;9.70;7.00;;;;;;;;;;5014992;28;20030;-81
2021/03/10 13:43:24;;;;;;;11.45;6.50;;;;;;;;;;5015397;28;20037;-81
2021/03/10 13:45:50;;;;;;;9.38;6.65;;;;;;;;;;5015322;28;20117;-80
2021/03/10 13:48:19;;;;;;;14.25;7.18;;;;;;;;;;5014546;28;20034;-80
2021/03/10 13:50:45;;;;;;;10.80;6.72;;;;;;;;;;5004906;28;20053;-79
2021/03/10 13:53:11;;;;;;;12.60;7.03;;;;;;;;;;5010330;28;20108;-81
2021/03/10 13:55:38;;;;;;;11.82;7.00;;;;;;;;;;5004612;28;20022;-81
2021/03/10 13:58:04;;;;;;;13.85;7.55;;;;;;;;;;5016088;28;20022;-81
2021/03/10 14:00:30;;;;;;;11.98;7.22;;;;;;;;;;5007777;28;20038;-83
2021/03/10 14:02:56;;;;;;;11.45;7.15;;;;;;;;;;5005846;28;20033;-81
2021/03/10 14:05:22;;;;;;;11.98;7.50;;;;;;;;;;5013803;28;20022;-82
2021/03/10 14:07:49;;;;;;;10.13;6.97;;;;;;;;;;5011014;28;20092;-81
2021/03/10 14:10:15;;;;;;;13.85;6.72;;;;;;;;;;5016642;28;20469;-81
2021/03/10 14:12:42;;;;;;;10.82;6.97;;;;;;;;;;5015805;28;20551;-82
2021/03/10 14:15:08;;;;;;;11.70;7.38;;;;;;;;;;5014172;28;20026;-81
2021/03/10 14:17:35;;;;;;;12.70;6.97;;;;;;;;;;5013269;28;20052;-81
2021/03/10 14:20:01;;;;;;;12.15;7.63;;;;;;;;;;5013124;28;20457;-81
2021/03/10 14:22:27;;;;;;;9.88;6.38;;;;;;;;;;5013283;28;20034;-80
2021/03/10 14:24:53;;;;;;;10.27;6.93;;;;;;;;;;5016410;28;20045;-81
2021/03/10 14:27:19;;;;;;;13.93;8.05;;;;;;;;;;5015296;28;20030;-81